x

West Sea Otter (46204) Wave Buoy

10:00 - Mon 27th Jun 2016 All times are PDT. -7 hours from GMT.

  • Sig Wave height 3.9ft
  • Peak Period 16s
  • Wind
    9mph, 11mph gusts
  • Sea Temp 56°f
  • Aire Temp 56°f
  • Sea Pressure 1024.1mb
  • West Sea Otter
  • West Sea Otter

More Historic Weather Station data

Upgrade to MSW Pro to gain access to the past 30 days of data for over 8000 Wavebouys and Weather Stations around the globe.

Join Pro

Comparision Forecast

View Surf forecast
   
lun 06/27 10:00 4ft 16s 9 11 mph 1024.1mb 56f 56f
9:00 4ft 10s 9 11 mph 1024mb 56f 56f
8:00 4.5ft 9s 9 11 mph 1023.8mb 56f 56f
7:00 4ft 18s 7 9 mph 1023.7mb 56f 56f
6:00 4ft 16s 9
mph
1023.6mb 56f 56f
5:00 4ft 17s 9 11 mph 1023.5mb 55f 56f
4:00 4.5ft 10s 9 11 mph 1023.4mb 55f 56f
3:00 4.5ft 17s 9 11 mph 1023.7mb 55f 56f
2:00 4.5ft 16s 13 16 mph 1023.9mb 56f 55f
1:00 4ft 17s 16 18 mph 1024mb 56f 56f
12:00 4.5ft 16s 13 16 mph 1024.4mb 56f 56f
dom 06/26 11:00 4.5ft 9s 13 16 mph 1024.6mb 56f 56f
10:00 4.5ft 17s 13 16 mph 1024.7mb 56f 56f
9:00 4ft 17s 13 16 mph 1024.9mb 56f 56f
8:00 3.5ft 10s 13 16 mph 1025mb 56f 57f
7:00 3.5ft 17s 13 16 mph 1025.2mb 57f 57f
6:00 4ft 17s 13 16 mph 1025.4mb 57f 57f
5:00 3.5ft 17s 13 16 mph 1025.6mb 56f 57f
4:00 3.5ft 17s 13 16 mph 1026mb 57f 57f
3:00 3.5ft 17s 9 13 mph 1026.5mb 57f 56f
2:00 3.5ft 17s 9 11 mph 1026.6mb 56f 56f
1:00 3.5ft 17s 9 11 mph 1026.8mb 56f 56f
12:00 3.5ft 9s 11
mph
1027mb 56f 55f
11:00 3.5ft 16s 11 13 mph 1026.9mb 56f 55f
10:00 3.5ft 17s 9
mph
1027.1mb 56f 55f
9:00 3.5ft 17s 7
mph
1027mb 56f 55f
8:00 3.5ft 18s 4 7 mph 1026.8mb 56f 55f
7:00 3.5ft 18s 4
mph
1026.4mb 56f 55f
6:00 3.5ft 18s  -  2 mph 1026.3mb 56f 54f
5:00 3.5ft 17s 7
mph
1026.4mb 56f 54f
4:00 3.5ft 18s 2
mph
1026.5mb 55f 55f
3:00 3.5ft 18s  -  mph 1026.7mb 55f 55f
2:00 4ft 18s 4
mph
1026.8mb 55f 55f
1:00 3.5ft 18s 4
mph
1026.7mb 55f 55f
12:00 3.5ft 18s 2 4 mph 1026.8mb 56f 54f
sáb 06/25 11:00 3.5ft 16s 2
mph
1026.7mb 56f 55f
10:00 3.5ft 17s 4 7 mph 1026.5mb 56f 55f
9:00 3.5ft 18s 4
mph
1026.1mb 56f 55f
8:00 3.5ft 18s 4 7 mph 1026mb 56f 55f
7:00 3.5ft 7s 9 11 mph 1025.9mb 56f 56f
6:00 4ft 7s 9 11 mph 1026.1mb 56f 56f
5:00 4.5ft 6s 9 11 mph 1026.1mb 56f 55f
4:00 4.5ft 17s 9 11 mph 1026mb 56f 55f
3:00 4ft 6s 11 13 mph 1025.8mb 56f 55f
2:00 4.5ft 16s 11 13 mph 1025.5mb 55f 55f
1:00 4.5ft 16s 13
mph
1025.2mb 55f 55f
12:00 4.5ft 16s 13 16 mph 1024.9mb 55f 55f
11:00 4.5ft 5s 13 16 mph 1024.5mb 55f 55f
10:00 4.5ft 17s 13 16 mph 1024.1mb 55f 55f
9:00 5ft 5s 13 18 mph 1023.8mb 55f 55f
8:00 4.5ft 5s 22 29 mph 1023.1mb 55f 53f
7:00 4.5ft 17s 22 25 mph 1022.9mb 55f 53f
6:00 4.5ft 18s 20 25 mph 1022.8mb 55f 53f
5:00 3.5ft 17s 20 25 mph 1022.8mb 55f 53f
4:00 3.5ft 17s 18 22 mph 1023.2mb 55f 54f
3:00 3.5ft 7s 18 20 mph 1023.3mb 55f 54f
2:00 3.5ft 17s 16 18 mph 1023.7mb 55f 54f
1:00 3.5ft 6s 13 18 mph 1024.1mb 55f 53f
12:00 3.5ft 17s 11 13 mph 1024.4mb 55f 54f
vie 06/24 11:00 3.5ft 17s 9 11 mph 1024.3mb 55f 55f
10:00 3.5ft 17s 11 13 mph 1024.3mb 55f 55f
9:00 3.5ft 17s 9 11 mph 1024mb 55f 55f
8:00 4ft 18s 11 13 mph 1024mb 55f 55f
7:00 3.5ft 17s 11
mph
1023.5mb 55f 55f
6:00 4ft 17s 9 11 mph 1023.2mb 55f 55f
5:00 4.5ft 8s 11 13 mph 1023.1mb 55f 55f
4:00 5ft 6s 13 16 mph 1022.9mb 55f 55f
3:00 5ft 8s 13 18 mph 1022.7mb 55f 55f
2:00 4.5ft 8s 83 110 mph 1022.3mb 56f 57f
1:00 4.5ft 7s 20 76 mph 1021.6mb 55f 56f
12:00 4.5ft 7s 7
mph
1021.1mb 55f 55f
11:00 4.5ft 8s 7 9 mph 1020.6mb 55f 55f
10:00 4ft 18s 7 9 mph 1020.3mb 55f 55f
9:00 4ft 8s 7 9 mph 1019.7mb 55f 55f
8:00 4.5ft 7s 7 9 mph 1019.2mb 55f 55f
7:00 4.5ft 7s 9 11 mph 1018.8mb 55f 55f
6:00 4.5ft 18s 11 13 mph 1018.4mb 55f 55f
5:00 5ft 6s 13 16 mph 1017.9mb 55f 55f
4:00 4.5ft 6s 13 16 mph 1017.6mb 55f 55f
3:00 5ft 7s 13 16 mph 1017.3mb 55f 55f
2:00 5ft 6s 11 13 mph 1017.3mb 55f 55f
1:00 5ft 7s 13 16 mph 1017.1mb 55f 55f
12:00 5ft 8s 13 18 mph 1016.9mb 55f 55f
jue 06/23 11:00 5ft 7s 13 18 mph 1016.8mb 56f 55f
10:00 5ft 7s 16 18 mph 1016.5mb 56f 55f
9:00 4.5ft 7s 16 20 mph 1016.1mb 56f 56f
8:00 4ft 7s 11 13 mph 1016.2mb 56f 56f
7:00 4.5ft 8s 9 11 mph 1015.7mb 56f 56f